sensor_id;sensor_type;location;lat;lon;timestamp;P1;durP1;ratioP1;P2;durP2;ratioP2
3791;SDS011;1911;53.768;11.474;2023-07-31T00:01:14;4.20;;;1.90;;
3791;SDS011;1911;53.768;11.474;2023-07-31T00:03:40;2.87;;;2.57;;
3791;SDS011;1911;53.768;11.474;2023-07-31T00:06:05;3.67;;;1.80;;
3791;SDS011;1911;53.768;11.474;2023-07-31T00:08:31;5.47;;;2.50;;
3791;SDS011;1911;53.768;11.474;2023-07-31T00:10:56;4.50;;;2.07;;
3791;SDS011;1911;53.768;11.474;2023-07-31T00:13:22;5.53;;;2.40;;
3791;SDS011;1911;53.768;11.474;2023-07-31T00:15:48;3.17;;;1.90;;
3791;SDS011;1911;53.768;11.474;2023-07-31T00:18:14;3.33;;;1.63;;
3791;SDS011;1911;53.768;11.474;2023-07-31T00:20:39;5.57;;;2.40;;
3791;SDS011;1911;53.768;11.474;2023-07-31T00:23:05;4.67;;;2.77;;
3791;SDS011;1911;53.768;11.474;2023-07-31T00:25:31;5.70;;;2.80;;
3791;SDS011;1911;53.768;11.474;2023-07-31T00:27:57;5.77;;;3.30;;
3791;SDS011;1911;53.768;11.474;2023-07-31T00:30:22;4.30;;;2.43;;
3791;SDS011;1911;53.768;11.474;2023-07-31T00:32:50;5.97;;;3.20;;
3791;SDS011;1911;53.768;11.474;2023-07-31T00:35:16;5.60;;;2.70;;
3791;SDS011;1911;53.768;11.474;2023-07-31T00:37:41;4.90;;;2.73;;
3791;SDS011;1911;53.768;11.474;2023-07-31T00:40:07;7.23;;;2.30;;
3791;SDS011;1911;53.768;11.474;2023-07-31T00:42:33;4.87;;;2.50;;
3791;SDS011;1911;53.768;11.474;2023-07-31T00:44:58;4.33;;;2.77;;
3791;SDS011;1911;53.768;11.474;2023-07-31T00:47:24;3.90;;;2.33;;
3791;SDS011;1911;53.768;11.474;2023-07-31T00:49:50;9.97;;;3.13;;
3791;SDS011;1911;53.768;11.474;2023-07-31T00:52:16;5.87;;;2.33;;
3791;SDS011;1911;53.768;11.474;2023-07-31T00:54:43;4.80;;;2.70;;
3791;SDS011;1911;53.768;11.474;2023-07-31T00:57:09;6.63;;;2.43;;
3791;SDS011;1911;53.768;11.474;2023-07-31T00:59:35;3.20;;;2.17;;
3791;SDS011;1911;53.768;11.474;2023-07-31T01:02:00;11.23;;;4.20;;
3791;SDS011;1911;53.768;11.474;2023-07-31T01:04:26;6.03;;;2.90;;
3791;SDS011;1911;53.768;11.474;2023-07-31T01:06:56;6.43;;;3.20;;
3791;SDS011;1911;53.768;11.474;2023-07-31T01:09:32;5.07;;;2.20;;
3791;SDS011;1911;53.768;11.474;2023-07-31T01:12:22;5.77;;;2.80;;
3791;SDS011;1911;53.768;11.474;2023-07-31T01:14:50;6.30;;;2.67;;
3791;SDS011;1911;53.768;11.474;2023-07-31T01:17:39;3.70;;;2.50;;
3791;SDS011;1911;53.768;11.474;2023-07-31T01:20:07;5.70;;;2.60;;
3791;SDS011;1911;53.768;11.474;2023-07-31T01:25:42;4.87;;;3.23;;
3791;SDS011;1911;53.768;11.474;2023-07-31T01:28:13;5.03;;;2.83;;
3791;SDS011;1911;53.768;11.474;2023-07-31T01:30:43;5.53;;;2.83;;
3791;SDS011;1911;53.768;11.474;2023-07-31T01:33:12;9.63;;;3.27;;
3791;SDS011;1911;53.768;11.474;2023-07-31T01:35:43;6.60;;;3.73;;
3791;SDS011;1911;53.768;11.474;2023-07-31T01:38:10;8.20;;;3.03;;
3791;SDS011;1911;53.768;11.474;2023-07-31T01:40:36;4.17;;;3.10;;
3791;SDS011;1911;53.768;11.474;2023-07-31T01:43:01;6.13;;;3.07;;
3791;SDS011;1911;53.768;11.474;2023-07-31T01:45:27;7.63;;;2.77;;
3791;SDS011;1911;53.768;11.474;2023-07-31T01:47:53;6.30;;;3.00;;
3791;SDS011;1911;53.768;11.474;2023-07-31T01:50:18;3.70;;;3.00;;
3791;SDS011;1911;53.768;11.474;2023-07-31T01:52:44;7.30;;;3.07;;
3791;SDS011;1911;53.768;11.474;2023-07-31T01:55:09;6.60;;;3.13;;
3791;SDS011;1911;53.768;11.474;2023-07-31T01:57:36;7.30;;;2.80;;
3791;SDS011;1911;53.768;11.474;2023-07-31T02:00:02;8.10;;;2.70;;
3791;SDS011;1911;53.768;11.474;2023-07-31T02:02:28;9.97;;;3.13;;
3791;SDS011;1911;53.768;11.474;2023-07-31T02:04:53;7.30;;;2.77;;
3791;SDS011;1911;53.768;11.474;2023-07-31T02:07:19;7.27;;;3.10;;
3791;SDS011;1911;53.768;11.474;2023-07-31T02:09:44;5.83;;;2.90;;
3791;SDS011;1911;53.768;11.474;2023-07-31T02:12:11;6.47;;;2.93;;
3791;SDS011;1911;53.768;11.474;2023-07-31T02:14:39;12.07;;;3.47;;
3791;SDS011;1911;53.768;11.474;2023-07-31T02:17:05;5.60;;;2.40;;
3791;SDS011;1911;53.768;11.474;2023-07-31T02:19:30;4.23;;;2.60;;
3791;SDS011;1911;53.768;11.474;2023-07-31T02:21:56;3.53;;;2.30;;
3791;SDS011;1911;53.768;11.474;2023-07-31T02:24:23;5.07;;;3.17;;
3791;SDS011;1911;53.768;11.474;2023-07-31T02:26:49;8.00;;;2.50;;
3791;SDS011;1911;53.768;11.474;2023-07-31T02:29:15;7.60;;;3.17;;
3791;SDS011;1911;53.768;11.474;2023-07-31T02:31:40;6.23;;;2.90;;
3791;SDS011;1911;53.768;11.474;2023-07-31T02:34:06;5.30;;;2.60;;
3791;SDS011;1911;53.768;11.474;2023-07-31T02:36:32;8.73;;;3.10;;
3791;SDS011;1911;53.768;11.474;2023-07-31T02:38:57;5.60;;;3.13;;
3791;SDS011;1911;53.768;11.474;2023-07-31T02:41:23;8.73;;;3.77;;
3791;SDS011;1911;53.768;11.474;2023-07-31T02:43:48;5.40;;;3.20;;
3791;SDS011;1911;53.768;11.474;2023-07-31T02:46:14;3.80;;;3.33;;
3791;SDS011;1911;53.768;11.474;2023-07-31T02:48:39;7.77;;;3.50;;
3791;SDS011;1911;53.768;11.474;2023-07-31T02:51:05;7.53;;;2.97;;
3791;SDS011;1911;53.768;11.474;2023-07-31T02:53:31;6.60;;;3.67;;
3791;SDS011;1911;53.768;11.474;2023-07-31T02:55:56;7.60;;;3.10;;
3791;SDS011;1911;53.768;11.474;2023-07-31T02:58:22;5.50;;;3.67;;
3791;SDS011;1911;53.768;11.474;2023-07-31T03:00:47;4.50;;;2.97;;
3791;SDS011;1911;53.768;11.474;2023-07-31T03:03:13;4.80;;;2.63;;
3791;SDS011;1911;53.768;11.474;2023-07-31T03:05:39;5.70;;;2.80;;
3791;SDS011;1911;53.768;11.474;2023-07-31T03:08:04;3.60;;;2.47;;
3791;SDS011;1911;53.768;11.474;2023-07-31T03:10:30;9.73;;;3.80;;
3791;SDS011;1911;53.768;11.474;2023-07-31T03:12:55;5.93;;;3.50;;
3791;SDS011;1911;53.768;11.474;2023-07-31T03:15:21;4.93;;;2.73;;
3791;SDS011;1911;53.768;11.474;2023-07-31T03:17:46;6.87;;;3.70;;
3791;SDS011;1911;53.768;11.474;2023-07-31T03:20:12;8.50;;;3.30;;
3791;SDS011;1911;53.768;11.474;2023-07-31T03:22:38;7.17;;;3.87;;
3791;SDS011;1911;53.768;11.474;2023-07-31T03:25:03;5.13;;;3.30;;
3791;SDS011;1911;53.768;11.474;2023-07-31T03:27:29;9.17;;;3.90;;
3791;SDS011;1911;53.768;11.474;2023-07-31T03:29:55;5.80;;;3.80;;
3791;SDS011;1911;53.768;11.474;2023-07-31T03:32:20;6.50;;;3.40;;
3791;SDS011;1911;53.768;11.474;2023-07-31T03:34:46;8.33;;;3.37;;
3791;SDS011;1911;53.768;11.474;2023-07-31T03:37:12;7.77;;;2.97;;
3791;SDS011;1911;53.768;11.474;2023-07-31T03:39:37;4.83;;;3.30;;
3791;SDS011;1911;53.768;11.474;2023-07-31T03:42:03;8.10;;;3.70;;
3791;SDS011;1911;53.768;11.474;2023-07-31T03:44:29;6.43;;;3.80;;
3791;SDS011;1911;53.768;11.474;2023-07-31T03:46:54;5.00;;;3.30;;
3791;SDS011;1911;53.768;11.474;2023-07-31T03:49:20;5.47;;;3.40;;
3791;SDS011;1911;53.768;11.474;2023-07-31T03:51:45;5.93;;;3.00;;
3791;SDS011;1911;53.768;11.474;2023-07-31T03:54:11;5.63;;;3.53;;
3791;SDS011;1911;53.768;11.474;2023-07-31T03:56:38;7.70;;;3.83;;
3791;SDS011;1911;53.768;11.474;2023-07-31T03:59:04;8.90;;;4.20;;
3791;SDS011;1911;53.768;11.474;2023-07-31T04:01:29;7.50;;;3.97;;
3791;SDS011;1911;53.768;11.474;2023-07-31T04:03:55;11.57;;;3.63;;
3791;SDS011;1911;53.768;11.474;2023-07-31T04:06:21;8.30;;;3.77;;
3791;SDS011;1911;53.768;11.474;2023-07-31T04:08:46;6.43;;;3.53;;
3791;SDS011;1911;53.768;11.474;2023-07-31T04:11:12;7.13;;;3.90;;
3791;SDS011;1911;53.768;11.474;2023-07-31T04:13:38;3.40;;;3.10;;
3791;SDS011;1911;53.768;11.474;2023-07-31T04:16:04;7.50;;;4.23;;
3791;SDS011;1911;53.768;11.474;2023-07-31T04:18:30;6.70;;;4.13;;
3791;SDS011;1911;53.768;11.474;2023-07-31T04:20:56;8.70;;;4.67;;
3791;SDS011;1911;53.768;11.474;2023-07-31T04:23:23;6.20;;;4.40;;
3791;SDS011;1911;53.768;11.474;2023-07-31T04:25:49;8.43;;;3.90;;
3791;SDS011;1911;53.768;11.474;2023-07-31T04:28:14;9.97;;;3.77;;
3791;SDS011;1911;53.768;11.474;2023-07-31T04:30:40;5.87;;;4.13;;
3791;SDS011;1911;53.768;11.474;2023-07-31T04:33:06;8.70;;;3.97;;
3791;SDS011;1911;53.768;11.474;2023-07-31T04:35:31;5.27;;;3.70;;
3791;SDS011;1911;53.768;11.474;2023-07-31T04:37:57;9.67;;;5.73;;
3791;SDS011;1911;53.768;11.474;2023-07-31T04:40:22;6.43;;;4.00;;
3791;SDS011;1911;53.768;11.474;2023-07-31T04:42:49;7.37;;;4.03;;
3791;SDS011;1911;53.768;11.474;2023-07-31T04:45:15;5.10;;;3.87;;
3791;SDS011;1911;53.768;11.474;2023-07-31T04:47:41;5.43;;;4.60;;
3791;SDS011;1911;53.768;11.474;2023-07-31T04:50:06;6.67;;;4.90;;
3791;SDS011;1911;53.768;11.474;2023-07-31T04:52:32;6.00;;;5.17;;
3791;SDS011;1911;53.768;11.474;2023-07-31T04:54:58;8.53;;;5.40;;
3791;SDS011;1911;53.768;11.474;2023-07-31T04:57:23;7.87;;;5.30;;
3791;SDS011;1911;53.768;11.474;2023-07-31T04:59:49;9.60;;;5.27;;
3791;SDS011;1911;53.768;11.474;2023-07-31T05:02:14;11.10;;;5.57;;
3791;SDS011;1911;53.768;11.474;2023-07-31T05:04:40;9.53;;;5.83;;
3791;SDS011;1911;53.768;11.474;2023-07-31T05:07:06;6.50;;;5.60;;
3791;SDS011;1911;53.768;11.474;2023-07-31T05:09:31;8.47;;;5.53;;
3791;SDS011;1911;53.768;11.474;2023-07-31T05:11:57;7.87;;;5.43;;
3791;SDS011;1911;53.768;11.474;2023-07-31T05:14:22;7.60;;;5.13;;
3791;SDS011;1911;53.768;11.474;2023-07-31T05:16:48;15.17;;;6.00;;
3791;SDS011;1911;53.768;11.474;2023-07-31T05:19:13;8.27;;;5.97;;
3791;SDS011;1911;53.768;11.474;2023-07-31T05:21:39;9.33;;;6.13;;
3791;SDS011;1911;53.768;11.474;2023-07-31T05:24:05;8.30;;;5.17;;
3791;SDS011;1911;53.768;11.474;2023-07-31T05:26:31;8.23;;;5.87;;
3791;SDS011;1911;53.768;11.474;2023-07-31T05:28:56;12.30;;;5.33;;
3791;SDS011;1911;53.768;11.474;2023-07-31T05:31:23;8.10;;;5.70;;
3791;SDS011;1911;53.768;11.474;2023-07-31T05:33:49;8.37;;;5.90;;
3791;SDS011;1911;53.768;11.474;2023-07-31T05:36:15;6.63;;;5.67;;
3791;SDS011;1911;53.768;11.474;2023-07-31T05:38:41;8.50;;;5.90;;
3791;SDS011;1911;53.768;11.474;2023-07-31T05:41:09;5.73;;;5.10;;
3791;SDS011;1911;53.768;11.474;2023-07-31T05:43:36;7.57;;;5.17;;
3791;SDS011;1911;53.768;11.474;2023-07-31T05:46:01;6.40;;;5.63;;
3791;SDS011;1911;53.768;11.474;2023-07-31T05:48:27;7.90;;;5.27;;
3791;SDS011;1911;53.768;11.474;2023-07-31T05:50:53;9.93;;;5.37;;
3791;SDS011;1911;53.768;11.474;2023-07-31T05:53:18;5.97;;;5.20;;
3791;SDS011;1911;53.768;11.474;2023-07-31T05:55:44;6.07;;;4.87;;
3791;SDS011;1911;53.768;11.474;2023-07-31T05:58:09;8.37;;;6.03;;
3791;SDS011;1911;53.768;11.474;2023-07-31T06:00:35;6.67;;;5.60;;
3791;SDS011;1911;53.768;11.474;2023-07-31T06:03:01;7.30;;;4.53;;
3791;SDS011;1911;53.768;11.474;2023-07-31T06:05:27;5.63;;;5.00;;
3791;SDS011;1911;53.768;11.474;2023-07-31T06:07:54;5.00;;;4.40;;
3791;SDS011;1911;53.768;11.474;2023-07-31T06:10:20;7.73;;;4.87;;
3791;SDS011;1911;53.768;11.474;2023-07-31T06:12:46;8.90;;;4.77;;
3791;SDS011;1911;53.768;11.474;2023-07-31T06:15:11;5.67;;;4.57;;
3791;SDS011;1911;53.768;11.474;2023-07-31T06:17:37;6.17;;;4.80;;
3791;SDS011;1911;53.768;11.474;2023-07-31T06:20:13;5.20;;;4.60;;
3791;SDS011;1911;53.768;11.474;2023-07-31T06:22:41;7.83;;;4.47;;
3791;SDS011;1911;53.768;11.474;2023-07-31T06:25:08;7.07;;;4.80;;
3791;SDS011;1911;53.768;11.474;2023-07-31T06:27:39;5.27;;;4.77;;
3791;SDS011;1911;53.768;11.474;2023-07-31T06:30:05;4.27;;;3.87;;
3791;SDS011;1911;53.768;11.474;2023-07-31T06:32:31;7.40;;;4.33;;
3791;SDS011;1911;53.768;11.474;2023-07-31T06:34:57;5.07;;;4.03;;
3791;SDS011;1911;53.768;11.474;2023-07-31T06:37:22;5.67;;;3.83;;
3791;SDS011;1911;53.768;11.474;2023-07-31T06:39:48;5.43;;;3.83;;
3791;SDS011;1911;53.768;11.474;2023-07-31T06:42:14;6.67;;;3.80;;
3791;SDS011;1911;53.768;11.474;2023-07-31T06:44:39;4.17;;;3.77;;
3791;SDS011;1911;53.768;11.474;2023-07-31T06:47:05;4.63;;;4.20;;
3791;SDS011;1911;53.768;11.474;2023-07-31T06:49:30;5.33;;;3.90;;
3791;SDS011;1911;53.768;11.474;2023-07-31T06:51:56;6.27;;;4.13;;
3791;SDS011;1911;53.768;11.474;2023-07-31T06:54:22;4.60;;;3.67;;
3791;SDS011;1911;53.768;11.474;2023-07-31T06:56:47;5.07;;;3.30;;
3791;SDS011;1911;53.768;11.474;2023-07-31T06:59:13;3.33;;;3.03;;
3791;SDS011;1911;53.768;11.474;2023-07-31T07:01:38;4.40;;;3.60;;
3791;SDS011;1911;53.768;11.474;2023-07-31T07:04:04;3.43;;;2.67;;
3791;SDS011;1911;53.768;11.474;2023-07-31T07:06:29;3.00;;;2.70;;
3791;SDS011;1911;53.768;11.474;2023-07-31T07:08:55;4.60;;;3.10;;
3791;SDS011;1911;53.768;11.474;2023-07-31T07:11:20;3.37;;;3.00;;
3791;SDS011;1911;53.768;11.474;2023-07-31T07:13:46;8.37;;;3.17;;
3791;SDS011;1911;53.768;11.474;2023-07-31T07:16:11;6.40;;;3.30;;
3791;SDS011;1911;53.768;11.474;2023-07-31T07:18:37;3.07;;;2.33;;
3791;SDS011;1911;53.768;11.474;2023-07-31T07:21:03;6.00;;;3.07;;
3791;SDS011;1911;53.768;11.474;2023-07-31T07:23:28;3.40;;;3.10;;
3791;SDS011;1911;53.768;11.474;2023-07-31T07:25:54;3.93;;;2.70;;
3791;SDS011;1911;53.768;11.474;2023-07-31T07:28:19;2.43;;;2.13;;
3791;SDS011;1911;53.768;11.474;2023-07-31T07:30:50;4.90;;;2.80;;
3791;SDS011;1911;53.768;11.474;2023-07-31T07:33:17;3.50;;;2.57;;
3791;SDS011;1911;53.768;11.474;2023-07-31T07:35:43;5.33;;;2.97;;
3791;SDS011;1911;53.768;11.474;2023-07-31T07:38:09;3.20;;;2.50;;
3791;SDS011;1911;53.768;11.474;2023-07-31T07:40:40;2.50;;;2.17;;
3791;SDS011;1911;53.768;11.474;2023-07-31T07:43:06;2.73;;;2.17;;
3791;SDS011;1911;53.768;11.474;2023-07-31T07:45:32;3.00;;;2.57;;
3791;SDS011;1911;53.768;11.474;2023-07-31T07:47:57;3.77;;;3.10;;
3791;SDS011;1911;53.768;11.474;2023-07-31T07:50:24;2.40;;;2.20;;
3791;SDS011;1911;53.768;11.474;2023-07-31T07:52:49;3.20;;;2.63;;
3791;SDS011;1911;53.768;11.474;2023-07-31T07:55:15;3.00;;;2.40;;
3791;SDS011;1911;53.768;11.474;2023-07-31T07:57:41;3.23;;;2.47;;
3791;SDS011;1911;53.768;11.474;2023-07-31T08:00:06;2.40;;;2.20;;
3791;SDS011;1911;53.768;11.474;2023-07-31T08:02:32;2.20;;;2.00;;
3791;SDS011;1911;53.768;11.474;2023-07-31T08:04:58;2.50;;;2.10;;
3791;SDS011;1911;53.768;11.474;2023-07-31T08:07:23;2.47;;;2.17;;
3791;SDS011;1911;53.768;11.474;2023-07-31T08:09:49;3.70;;;2.23;;
3791;SDS011;1911;53.768;11.474;2023-07-31T08:12:15;2.63;;;2.13;;
3791;SDS011;1911;53.768;11.474;2023-07-31T08:14:40;2.67;;;2.43;;
3791;SDS011;1911;53.768;11.474;2023-07-31T08:17:06;3.00;;;2.17;;
3791;SDS011;1911;53.768;11.474;2023-07-31T08:19:31;3.90;;;2.20;;
3791;SDS011;1911;53.768;11.474;2023-07-31T08:21:57;2.23;;;1.90;;
3791;SDS011;1911;53.768;11.474;2023-07-31T08:24:23;2.40;;;2.00;;
3791;SDS011;1911;53.768;11.474;2023-07-31T08:26:48;6.13;;;2.07;;
3791;SDS011;1911;53.768;11.474;2023-07-31T08:29:14;3.07;;;1.87;;
3791;SDS011;1911;53.768;11.474;2023-07-31T08:31:39;2.20;;;1.87;;
3791;SDS011;1911;53.768;11.474;2023-07-31T08:34:05;2.30;;;1.57;;
3791;SDS011;1911;53.768;11.474;2023-07-31T08:36:30;2.10;;;1.50;;
3791;SDS011;1911;53.768;11.474;2023-07-31T08:38:56;2.30;;;1.87;;
3791;SDS011;1911;53.768;11.474;2023-07-31T08:41:22;3.10;;;1.60;;
3791;SDS011;1911;53.768;11.474;2023-07-31T08:43:49;2.10;;;1.50;;
3791;SDS011;1911;53.768;11.474;2023-07-31T08:46:15;1.97;;;1.43;;
3791;SDS011;1911;53.768;11.474;2023-07-31T08:48:44;2.80;;;2.00;;
3791;SDS011;1911;53.768;11.474;2023-07-31T08:51:10;2.13;;;1.80;;
3791;SDS011;1911;53.768;11.474;2023-07-31T08:53:36;2.30;;;2.00;;
3791;SDS011;1911;53.768;11.474;2023-07-31T08:56:01;1.80;;;1.37;;
3791;SDS011;1911;53.768;11.474;2023-07-31T08:58:30;3.37;;;2.20;;
3791;SDS011;1911;53.768;11.474;2023-07-31T09:00:57;4.33;;;1.63;;
3791;SDS011;1911;53.768;11.474;2023-07-31T09:03:25;4.03;;;1.63;;
3791;SDS011;1911;53.768;11.474;2023-07-31T09:05:51;1.40;;;1.13;;
3791;SDS011;1911;53.768;11.474;2023-07-31T09:08:19;2.00;;;1.43;;
3791;SDS011;1911;53.768;11.474;2023-07-31T09:10:46;2.00;;;1.70;;
3791;SDS011;1911;53.768;11.474;2023-07-31T09:13:15;2.20;;;1.93;;
3791;SDS011;1911;53.768;11.474;2023-07-31T09:15:42;1.90;;;1.53;;
3791;SDS011;1911;53.768;11.474;2023-07-31T09:18:09;1.80;;;1.50;;
3791;SDS011;1911;53.768;11.474;2023-07-31T09:20:35;2.70;;;1.67;;
3791;SDS011;1911;53.768;11.474;2023-07-31T09:25:38;2.00;;;1.70;;
3791;SDS011;1911;53.768;11.474;2023-07-31T09:28:06;2.70;;;1.70;;
3791;SDS011;1911;53.768;11.474;2023-07-31T09:30:46;2.97;;;2.47;;
3791;SDS011;1911;53.768;11.474;2023-07-31T09:33:13;2.70;;;2.13;;
3791;SDS011;1911;53.768;11.474;2023-07-31T09:35:39;3.50;;;2.00;;
3791;SDS011;1911;53.768;11.474;2023-07-31T09:38:12;4.20;;;1.80;;
3791;SDS011;1911;53.768;11.474;2023-07-31T09:40:40;5.07;;;1.37;;
3791;SDS011;1911;53.768;11.474;2023-07-31T09:43:11;2.13;;;1.63;;
3791;SDS011;1911;53.768;11.474;2023-07-31T09:45:41;1.50;;;1.03;;
3791;SDS011;1911;53.768;11.474;2023-07-31T09:48:11;1.93;;;1.30;;
3791;SDS011;1911;53.768;11.474;2023-07-31T09:50:41;3.30;;;1.13;;
3791;SDS011;1911;53.768;11.474;2023-07-31T09:53:08;1.30;;;0.90;;
3791;SDS011;1911;53.768;11.474;2023-07-31T09:55:35;1.93;;;1.37;;
3791;SDS011;1911;53.768;11.474;2023-07-31T09:58:11;2.60;;;1.07;;
3791;SDS011;1911;53.768;11.474;2023-07-31T10:00:37;1.83;;;1.10;;
3791;SDS011;1911;53.768;11.474;2023-07-31T10:03:04;2.47;;;1.80;;
3791;SDS011;1911;53.768;11.474;2023-07-31T10:05:34;2.17;;;1.30;;
3791;SDS011;1911;53.768;11.474;2023-07-31T10:08:00;1.73;;;1.40;;
3791;SDS011;1911;53.768;11.474;2023-07-31T10:10:26;2.13;;;1.60;;
3791;SDS011;1911;53.768;11.474;2023-07-31T10:12:52;1.77;;;1.40;;
3791;SDS011;1911;53.768;11.474;2023-07-31T10:15:20;2.23;;;1.57;;
3791;SDS011;1911;53.768;11.474;2023-07-31T10:17:47;2.03;;;1.33;;
3791;SDS011;1911;53.768;11.474;2023-07-31T10:20:14;6.27;;;2.20;;
3791;SDS011;1911;53.768;11.474;2023-07-31T10:22:43;3.47;;;1.40;;
3791;SDS011;1911;53.768;11.474;2023-07-31T10:25:11;2.17;;;1.23;;
3791;SDS011;1911;53.768;11.474;2023-07-31T10:27:38;1.80;;;1.10;;
3791;SDS011;1911;53.768;11.474;2023-07-31T10:30:05;1.43;;;0.93;;
3791;SDS011;1911;53.768;11.474;2023-07-31T10:32:33;1.73;;;1.00;;
3791;SDS011;1911;53.768;11.474;2023-07-31T10:35:00;1.73;;;1.00;;
3791;SDS011;1911;53.768;11.474;2023-07-31T10:37:29;5.67;;;1.40;;
3791;SDS011;1911;53.768;11.474;2023-07-31T10:40:02;1.80;;;1.20;;
3791;SDS011;1911;53.768;11.474;2023-07-31T10:42:32;1.30;;;0.83;;
3791;SDS011;1911;53.768;11.474;2023-07-31T10:45:03;1.87;;;1.10;;
3791;SDS011;1911;53.768;11.474;2023-07-31T10:47:31;1.80;;;1.20;;
3791;SDS011;1911;53.768;11.474;2023-07-31T10:50:20;1.90;;;1.40;;
3791;SDS011;1911;53.768;11.474;2023-07-31T10:52:49;1.47;;;0.90;;
3791;SDS011;1911;53.768;11.474;2023-07-31T10:57:48;1.63;;;0.67;;
3791;SDS011;1911;53.768;11.474;2023-07-31T11:00:32;1.50;;;1.10;;
3791;SDS011;1911;53.768;11.474;2023-07-31T11:03:19;1.43;;;1.00;;
3791;SDS011;1911;53.768;11.474;2023-07-31T11:05:55;1.10;;;0.70;;
3791;SDS011;1911;53.768;11.474;2023-07-31T11:08:31;2.07;;;0.87;;
3791;SDS011;1911;53.768;11.474;2023-07-31T11:13:27;2.20;;;0.63;;
3791;SDS011;1911;53.768;11.474;2023-07-31T11:15:56;1.67;;;0.70;;
3791;SDS011;1911;53.768;11.474;2023-07-31T11:18:22;1.20;;;0.60;;
3791;SDS011;1911;53.768;11.474;2023-07-31T11:20:48;0.90;;;0.50;;
3791;SDS011;1911;53.768;11.474;2023-07-31T11:23:15;1.00;;;0.60;;
3791;SDS011;1911;53.768;11.474;2023-07-31T11:25:42;1.27;;;0.40;;
3791;SDS011;1911;53.768;11.474;2023-07-31T11:28:15;1.20;;;0.50;;
3791;SDS011;1911;53.768;11.474;2023-07-31T11:30:43;0.93;;;0.53;;
3791;SDS011;1911;53.768;11.474;2023-07-31T11:33:11;0.90;;;0.40;;
3791;SDS011;1911;53.768;11.474;2023-07-31T11:35:47;1.30;;;0.50;;
3791;SDS011;1911;53.768;11.474;2023-07-31T11:38:27;1.00;;;0.50;;
3791;SDS011;1911;53.768;11.474;2023-07-31T11:40:58;1.37;;;0.50;;
3791;SDS011;1911;53.768;11.474;2023-07-31T11:43:27;0.90;;;0.40;;
3791;SDS011;1911;53.768;11.474;2023-07-31T11:45:55;0.93;;;0.43;;
3791;SDS011;1911;53.768;11.474;2023-07-31T11:48:25;3.00;;;1.47;;
3791;SDS011;1911;53.768;11.474;2023-07-31T11:50:59;2.23;;;1.10;;
3791;SDS011;1911;53.768;11.474;2023-07-31T11:53:36;4.73;;;2.40;;
3791;SDS011;1911;53.768;11.474;2023-07-31T11:56:03;3.63;;;2.70;;
3791;SDS011;1911;53.768;11.474;2023-07-31T11:58:30;4.80;;;3.20;;
3791;SDS011;1911;53.768;11.474;2023-07-31T12:00:58;4.73;;;3.27;;
3791;SDS011;1911;53.768;11.474;2023-07-31T12:03:24;8.83;;;3.40;;
3791;SDS011;1911;53.768;11.474;2023-07-31T12:05:51;7.73;;;3.43;;
3791;SDS011;1911;53.768;11.474;2023-07-31T12:08:20;10.00;;;3.93;;
3791;SDS011;1911;53.768;11.474;2023-07-31T12:10:49;7.80;;;4.57;;
3791;SDS011;1911;53.768;11.474;2023-07-31T12:13:22;12.43;;;4.90;;
3791;SDS011;1911;53.768;11.474;2023-07-31T12:15:55;5.90;;;4.67;;
3791;SDS011;1911;53.768;11.474;2023-07-31T12:18:22;8.60;;;4.13;;
3791;SDS011;1911;53.768;11.474;2023-07-31T12:24:20;8.47;;;4.80;;
3791;SDS011;1911;53.768;11.474;2023-07-31T12:26:48;9.77;;;5.80;;
3791;SDS011;1911;53.768;11.474;2023-07-31T12:29:16;9.77;;;5.40;;
3791;SDS011;1911;53.768;11.474;2023-07-31T12:31:44;11.60;;;6.00;;
3791;SDS011;1911;53.768;11.474;2023-07-31T12:34:17;8.93;;;5.23;;
3791;SDS011;1911;53.768;11.474;2023-07-31T12:36:43;12.00;;;7.10;;
3791;SDS011;1911;53.768;11.474;2023-07-31T12:39:09;10.00;;;6.87;;
3791;SDS011;1911;53.768;11.474;2023-07-31T12:41:35;11.40;;;5.50;;
3791;SDS011;1911;53.768;11.474;2023-07-31T12:44:01;10.57;;;6.00;;
3791;SDS011;1911;53.768;11.474;2023-07-31T12:46:28;7.57;;;5.50;;
3791;SDS011;1911;53.768;11.474;2023-07-31T12:48:53;9.73;;;4.90;;
3791;SDS011;1911;53.768;11.474;2023-07-31T12:51:19;7.50;;;4.97;;
3791;SDS011;1911;53.768;11.474;2023-07-31T12:53:45;11.50;;;6.30;;
3791;SDS011;1911;53.768;11.474;2023-07-31T12:56:11;6.70;;;4.33;;
3791;SDS011;1911;53.768;11.474;2023-07-31T12:58:37;6.90;;;3.60;;
3791;SDS011;1911;53.768;11.474;2023-07-31T13:01:02;4.10;;;1.67;;
3791;SDS011;1911;53.768;11.474;2023-07-31T13:03:28;1.77;;;0.90;;
3791;SDS011;1911;53.768;11.474;2023-07-31T13:05:54;1.37;;;0.60;;
3791;SDS011;1911;53.768;11.474;2023-07-31T13:08:20;1.73;;;0.93;;
3791;SDS011;1911;53.768;11.474;2023-07-31T13:10:45;1.50;;;0.80;;
3791;SDS011;1911;53.768;11.474;2023-07-31T13:13:11;1.87;;;1.00;;
3791;SDS011;1911;53.768;11.474;2023-07-31T13:15:37;1.70;;;0.70;;
3791;SDS011;1911;53.768;11.474;2023-07-31T13:18:02;2.03;;;1.00;;
3791;SDS011;1911;53.768;11.474;2023-07-31T13:20:28;2.33;;;0.80;;
3791;SDS011;1911;53.768;11.474;2023-07-31T13:22:53;1.83;;;0.97;;
3791;SDS011;1911;53.768;11.474;2023-07-31T13:25:19;1.57;;;1.10;;
3791;SDS011;1911;53.768;11.474;2023-07-31T13:27:45;1.53;;;0.80;;
3791;SDS011;1911;53.768;11.474;2023-07-31T13:30:12;1.60;;;1.00;;
3791;SDS011;1911;53.768;11.474;2023-07-31T13:32:38;1.40;;;0.83;;
3791;SDS011;1911;53.768;11.474;2023-07-31T13:35:25;2.50;;;0.90;;
3791;SDS011;1911;53.768;11.474;2023-07-31T13:37:53;1.43;;;0.70;;
3791;SDS011;1911;53.768;11.474;2023-07-31T13:40:18;1.20;;;0.80;;
3791;SDS011;1911;53.768;11.474;2023-07-31T13:42:44;1.20;;;0.70;;
3791;SDS011;1911;53.768;11.474;2023-07-31T13:45:14;1.30;;;0.63;;
3791;SDS011;1911;53.768;11.474;2023-07-31T15:41:37;3.30;;;2.03;;
3791;SDS011;1911;53.768;11.474;2023-07-31T15:51:34;3.87;;;1.63;;
3791;SDS011;1911;53.768;11.474;2023-07-31T16:25:43;2.13;;;0.97;;
3791;SDS011;1911;53.768;11.474;2023-07-31T16:39:24;3.30;;;1.30;;
3791;SDS011;1911;53.768;11.474;2023-07-31T16:59:29;2.17;;;1.40;;
3791;SDS011;1911;53.768;11.474;2023-07-31T18:36:17;4.77;;;4.20;;
3791;SDS011;1911;53.768;11.474;2023-07-31T18:49:32;4.20;;;3.67;;
3791;SDS011;1911;53.768;11.474;2023-07-31T18:56:13;3.97;;;3.57;;
3791;SDS011;1911;53.768;11.474;2023-07-31T18:59:07;4.00;;;3.60;;
3791;SDS011;1911;53.768;11.474;2023-07-31T19:09:09;3.50;;;3.20;;
3791;SDS011;1911;53.768;11.474;2023-07-31T19:38:42;6.27;;;4.87;;
3791;SDS011;1911;53.768;11.474;2023-07-31T19:41:56;6.37;;;4.77;;
3791;SDS011;1911;53.768;11.474;2023-07-31T19:45:02;6.23;;;4.80;;
3791;SDS011;1911;53.768;11.474;2023-07-31T19:48:11;8.83;;;5.03;;
3791;SDS011;1911;53.768;11.474;2023-07-31T19:51:38;4.80;;;4.10;;
3791;SDS011;1911;53.768;11.474;2023-07-31T19:54:06;7.13;;;3.87;;
3791;SDS011;1911;53.768;11.474;2023-07-31T19:56:34;3.57;;;3.10;;
3791;SDS011;1911;53.768;11.474;2023-07-31T19:59:07;5.20;;;3.87;;
3791;SDS011;1911;53.768;11.474;2023-07-31T20:01:35;5.40;;;3.10;;
3791;SDS011;1911;53.768;11.474;2023-07-31T20:04:01;5.00;;;4.13;;
3791;SDS011;1911;53.768;11.474;2023-07-31T20:06:29;3.67;;;3.17;;
3791;SDS011;1911;53.768;11.474;2023-07-31T20:08:55;3.33;;;2.67;;
3791;SDS011;1911;53.768;11.474;2023-07-31T20:11:22;4.23;;;2.63;;
3791;SDS011;1911;53.768;11.474;2023-07-31T20:13:48;3.77;;;3.30;;
3791;SDS011;1911;53.768;11.474;2023-07-31T20:16:15;3.17;;;2.73;;
3791;SDS011;1911;53.768;11.474;2023-07-31T20:18:43;4.57;;;3.77;;
3791;SDS011;1911;53.768;11.474;2023-07-31T20:21:09;4.87;;;3.30;;
3791;SDS011;1911;53.768;11.474;2023-07-31T20:23:36;3.73;;;3.07;;
3791;SDS011;1911;53.768;11.474;2023-07-31T20:26:02;5.40;;;3.77;;
3791;SDS011;1911;53.768;11.474;2023-07-31T20:28:28;4.80;;;3.67;;
3791;SDS011;1911;53.768;11.474;2023-07-31T20:30:53;6.63;;;4.40;;
3791;SDS011;1911;53.768;11.474;2023-07-31T20:33:19;4.97;;;4.23;;
3791;SDS011;1911;53.768;11.474;2023-07-31T20:35:44;5.20;;;4.70;;
3791;SDS011;1911;53.768;11.474;2023-07-31T20:38:10;6.23;;;5.00;;
3791;SDS011;1911;53.768;11.474;2023-07-31T20:40:36;6.60;;;5.90;;
3791;SDS011;1911;53.768;11.474;2023-07-31T20:43:01;7.83;;;5.60;;